createdAt,value
2022-10-31T00:01:40.337Z,101092.84
2022-10-31T00:04:08.692Z,101079.28
2022-10-31T00:06:36.715Z,101082.66
2022-10-31T00:09:08.596Z,101079.28
2022-10-31T00:11:36.664Z,101092.00
2022-10-31T00:14:06.006Z,101089.47
2022-10-31T00:16:35.807Z,101073.34
2022-10-31T00:19:08.251Z,101075.03
2022-10-31T00:21:37.721Z,101089.47
2022-10-31T00:24:06.156Z,101068.25
2022-10-31T00:26:34.452Z,101064.84
2022-10-31T00:29:04.358Z,101048.72
2022-10-31T00:31:32.334Z,101069.94
2022-10-31T00:34:00.422Z,101075.03
2022-10-31T00:36:28.781Z,101063.97
2022-10-31T00:38:57.388Z,101043.59
2022-10-31T00:41:25.392Z,101060.56
2022-10-31T00:43:57.064Z,101062.25
2022-10-31T00:46:24.998Z,101052.06
2022-10-31T00:48:52.976Z,101055.44
2022-10-31T00:51:21.840Z,101055.44
2022-10-31T00:53:49.808Z,101050.31
2022-10-31T00:56:17.796Z,101051.16
2022-10-31T00:58:48.405Z,101045.22
2022-10-31T01:01:16.475Z,101058.78
2022-10-31T01:03:44.485Z,101057.06
2022-10-31T01:06:17.489Z,101057.06
2022-10-31T01:08:49.900Z,101045.19
2022-10-31T01:11:23.520Z,101063.00
2022-10-31T01:13:57.638Z,101047.72
2022-10-31T01:16:27.865Z,101050.25
2022-10-31T01:18:55.880Z,101058.75
2022-10-31T01:21:29.244Z,101043.47
2022-10-31T01:23:57.913Z,101046.84
2022-10-31T01:26:29.150Z,101048.56
2022-10-31T01:29:01.732Z,101041.78
2022-10-31T01:31:34.296Z,101049.41
2022-10-31T01:34:02.601Z,101037.50
2022-10-31T01:36:34.530Z,101046.00
2022-10-31T01:39:13.924Z,101044.28
2022-10-31T01:41:47.243Z,101042.56
2022-10-31T01:44:18.226Z,101039.16
2022-10-31T01:46:46.157Z,101041.69
2022-10-31T01:49:24.387Z,101042.53
2022-10-31T01:52:04.166Z,101044.19
2022-10-31T01:54:42.199Z,101027.19
2022-10-31T01:57:14.522Z,101043.31
2022-10-31T01:59:46.851Z,101047.53
2022-10-31T02:02:17.305Z,101040.72
2022-10-31T02:04:46.459Z,101050.03
2022-10-31T02:07:19.401Z,101049.94
2022-10-31T02:09:49.587Z,101043.91
2022-10-31T02:12:19.409Z,101060.88
2022-10-31T02:14:48.640Z,101042.94
2022-10-31T02:17:17.131Z,101041.19
2022-10-31T02:19:50.867Z,101044.53
2022-10-31T02:22:42.685Z,101040.19
2022-10-31T02:25:38.900Z,101030.81
2022-10-31T02:28:21.738Z,101035.84
2022-10-31T02:30:49.693Z,101029.88
2022-10-31T02:33:24.480Z,101043.53
2022-10-31T02:36:02.635Z,101042.69
2022-10-31T02:38:44.512Z,101037.56
2022-10-31T02:41:51.391Z,101038.38
2022-10-31T02:44:28.142Z,101040.81
2022-10-31T02:47:09.043Z,101030.50
2022-10-31T02:49:56.206Z,101039.78
2022-10-31T02:52:30.668Z,101031.19
2022-10-31T02:54:59.545Z,101028.59
2022-10-31T02:57:34.894Z,101030.06
2022-10-31T03:00:07.487Z,101023.94
2022-10-31T03:02:56.661Z,101023.78
2022-10-31T03:05:25.354Z,101027.09
2022-10-31T03:08:15.069Z,101024.56
2022-10-31T03:10:52.305Z,101027.13
2022-10-31T03:13:31.194Z,101040.69
2022-10-31T03:16:24.423Z,101014.09
2022-10-31T03:18:58.362Z,101029.22
2022-10-31T03:21:35.698Z,101026.44
2022-10-31T03:24:05.717Z,101026.22
2022-10-31T03:26:37.859Z,101031.16
2022-10-31T03:29:13.471Z,101013.06
2022-10-31T03:31:52.594Z,101025.66
2022-10-31T03:34:24.492Z,101027.16
2022-10-31T03:36:57.910Z,101021.06
2022-10-31T03:39:27.806Z,101005.72
2022-10-31T03:42:07.049Z,101026.06
2022-10-31T03:44:37.669Z,101026.84
2022-10-31T03:47:06.530Z,101021.66
2022-10-31T03:49:36.356Z,101018.16
2022-10-31T03:52:19.618Z,101016.28
2022-10-31T03:54:55.910Z,101021.31
2022-10-31T03:57:37.309Z,101022.88
2022-10-31T04:00:15.811Z,101017.66
2022-10-31T04:02:58.906Z,101023.53
2022-10-31T04:05:28.545Z,101010.72
2022-10-31T04:07:59.959Z,101011.38
2022-10-31T04:10:32.886Z,101015.53
2022-10-31T04:13:09.594Z,101008.59
2022-10-31T04:15:41.746Z,101023.81
2022-10-31T04:18:12.743Z,101019.38
2022-10-31T04:20:43.039Z,101008.09
2022-10-31T04:23:33.880Z,101004.41
2022-10-31T04:26:01.925Z,101007.63
2022-10-31T04:28:30.045Z,100989.56
2022-10-31T04:30:58.156Z,100994.59
2022-10-31T04:33:26.180Z,100991.84
2022-10-31T04:35:54.197Z,101001.97
2022-10-31T04:38:22.370Z,100994.16
2022-10-31T04:40:50.383Z,100981.31
2022-10-31T04:45:54.876Z,100977.97
2022-10-31T04:48:22.895Z,100983.88
2022-10-31T04:50:50.828Z,100972.81
2022-10-31T04:53:19.051Z,100972.78
2022-10-31T04:55:47.033Z,100968.56
2022-10-31T05:00:43.796Z,100970.28
2022-10-31T05:03:11.839Z,100970.34
2022-10-31T05:05:39.910Z,100974.56
2022-10-31T05:08:08.006Z,100967.78
2022-10-31T05:10:36.008Z,100964.28
2022-10-31T05:13:06.162Z,100976.28
2022-10-31T05:15:37.899Z,100955.88
2022-10-31T05:18:06.864Z,100960.16
2022-10-31T05:20:35.193Z,100967.06
2022-10-31T05:23:03.377Z,100950.09
2022-10-31T05:25:31.447Z,100973.03
2022-10-31T05:27:59.831Z,100967.06
2022-10-31T05:30:32.699Z,100950.94
2022-10-31T05:33:01.648Z,100966.28
2022-10-31T05:35:33.172Z,100960.28
2022-10-31T05:38:01.662Z,100958.53
2022-10-31T05:40:30.076Z,100961.91
2022-10-31T05:43:00.326Z,100957.56
2022-10-31T05:45:28.889Z,100957.50
2022-10-31T05:48:00.426Z,100966.88
2022-10-31T05:50:31.225Z,100965.13
2022-10-31T05:53:03.780Z,100973.63
2022-10-31T05:55:33.154Z,100963.31
2022-10-31T05:58:01.383Z,100968.34
2022-10-31T06:00:30.710Z,100959.53
2022-10-31T06:03:03.546Z,100973.06
2022-10-31T06:05:32.625Z,100960.09
2022-10-31T06:08:01.396Z,100973.56
2022-10-31T06:10:30.370Z,100977.78
2022-10-31T06:12:58.680Z,100982.84
2022-10-31T06:15:26.762Z,100978.41
2022-10-31T06:18:06.486Z,100977.47
2022-10-31T06:20:36.436Z,100968.81
2022-10-31T06:23:05.416Z,100967.06
2022-10-31T06:25:34.760Z,100974.66
2022-10-31T06:28:03.063Z,100934.91
2022-10-31T06:30:31.500Z,100967.56
2022-10-31T06:33:10.628Z,100972.56
2022-10-31T06:35:38.590Z,100975.09
2022-10-31T06:38:06.690Z,100965.50
2022-10-31T06:40:34.970Z,100986.84
2022-10-31T06:43:03.128Z,100975.56
2022-10-31T06:45:31.616Z,100973.75
2022-10-31T06:48:16.714Z,100968.53
2022-10-31T06:50:45.602Z,100980.47
2022-10-31T06:53:16.738Z,100967.75
2022-10-31T06:55:44.945Z,100979.53
2022-10-31T06:58:13.723Z,100975.19
2022-10-31T07:00:42.189Z,100973.41
2022-10-31T07:03:14.915Z,100978.47
2022-10-31T07:05:43.972Z,100977.59
2022-10-31T07:08:14.503Z,100980.13
2022-10-31T07:10:44.025Z,100987.00
2022-10-31T07:13:14.610Z,100986.16
2022-10-31T07:15:44.859Z,100985.31
2022-10-31T07:18:14.175Z,100992.03
2022-10-31T07:20:42.255Z,101000.53
2022-10-31T07:23:13.703Z,100996.28
2022-10-31T07:25:42.453Z,100998.00
2022-10-31T07:28:11.187Z,100988.50
2022-10-31T07:30:40.557Z,100983.44
2022-10-31T07:33:08.584Z,100991.88
2022-10-31T07:35:36.815Z,100975.66
2022-10-31T07:38:16.437Z,100982.38
2022-10-31T07:40:45.139Z,100978.88
2022-10-31T07:43:14.779Z,100983.13
2022-10-31T07:45:43.212Z,100961.81
2022-10-31T07:48:11.196Z,100977.88
2022-10-31T07:50:39.291Z,100978.72
2022-10-31T07:53:13.646Z,100969.41
2022-10-31T07:55:42.358Z,100988.09
2022-10-31T07:58:16.387Z,100982.16
2022-10-31T08:00:47.904Z,100984.78
2022-10-31T08:03:18.934Z,100984.81
2022-10-31T08:05:48.181Z,100984.06
2022-10-31T08:08:18.944Z,100978.13
2022-10-31T08:10:46.946Z,100981.63
2022-10-31T08:13:16.400Z,100989.41
2022-10-31T08:15:44.712Z,100991.16
2022-10-31T08:18:15.101Z,100985.22
2022-10-31T08:20:44.464Z,100991.25
2022-10-31T08:23:15.264Z,100980.97
2022-10-31T08:25:44.049Z,100986.94
2022-10-31T08:28:13.423Z,100990.47
2022-10-31T08:30:42.683Z,100986.19
2022-10-31T08:33:16.258Z,100994.81
2022-10-31T08:35:45.303Z,100987.09
2022-10-31T08:38:14.794Z,100999.13
2022-10-31T08:40:43.088Z,100991.31
2022-10-31T08:43:14.923Z,100994.69
2022-10-31T08:45:45.919Z,100986.06
2022-10-31T08:48:19.160Z,101002.31
2022-10-31T08:50:47.624Z,100980.16
2022-10-31T08:53:20.824Z,100980.97
2022-10-31T08:55:49.418Z,100995.25
2022-10-31T08:58:19.595Z,100997.84
2022-10-31T09:00:50.102Z,100998.63
2022-10-31T09:03:29.268Z,100999.44
2022-10-31T09:06:01.704Z,100994.16
2022-10-31T09:08:32.146Z,100994.94
2022-10-31T09:11:01.096Z,100995.78
2022-10-31T09:13:30.468Z,101001.78
2022-10-31T09:16:01.805Z,101004.34
2022-10-31T09:18:29.857Z,101007.06
2022-10-31T09:21:00.733Z,101006.97
2022-10-31T09:23:29.229Z,101013.03
2022-10-31T09:25:57.512Z,101012.19
2022-10-31T09:28:26.880Z,101015.59
2022-10-31T09:30:56.469Z,101001.22
2022-10-31T09:33:24.405Z,100995.25
2022-10-31T09:35:52.580Z,101010.50
2022-10-31T09:38:22.131Z,101002.81
2022-10-31T09:41:31.446Z,100969.84
2022-10-31T09:44:23.955Z,101010.63
2022-10-31T09:47:10.642Z,101015.81
2022-10-31T09:50:02.257Z,100999.06
2022-10-31T09:52:35.372Z,100980.34
2022-10-31T09:55:38.395Z,101001.34
2022-10-31T09:58:08.790Z,101011.66
2022-10-31T10:00:37.678Z,100975.34
2022-10-31T10:03:44.356Z,101007.47
2022-10-31T10:06:20.983Z,101010.09
2022-10-31T10:08:50.210Z,101014.44
2022-10-31T10:11:30.023Z,101015.34
2022-10-31T10:14:20.857Z,101010.25
2022-10-31T10:17:46.459Z,101005.19
2022-10-31T10:20:33.756Z,101004.41
2022-10-31T10:23:32.346Z,100999.59
2022-10-31T10:26:24.342Z,101012.38
2022-10-31T10:29:19.173Z,101015.09
2022-10-31T10:31:54.174Z,101015.13
2022-10-31T10:34:39.330Z,101010.25
2022-10-31T10:37:46.397Z,101016.19
2022-10-31T10:40:27.871Z,101006.31
2022-10-31T10:43:25.511Z,101019.84
2022-10-31T10:46:52.145Z,100970.13
2022-10-31T10:49:55.000Z,101020.97
2022-10-31T10:52:45.985Z,101021.06
2022-10-31T10:55:30.414Z,101021.13
2022-10-31T10:58:09.621Z,101011.81
2022-10-31T11:00:52.103Z,101035.00
2022-10-31T11:03:21.557Z,101027.38
2022-10-31T11:05:56.678Z,101035.13
2022-10-31T11:08:32.346Z,101041.19
2022-10-31T11:11:03.105Z,101036.03
2022-10-31T11:13:32.804Z,101032.78
2022-10-31T11:16:12.764Z,101037.97
2022-10-31T11:18:47.325Z,101043.19
2022-10-31T11:21:32.183Z,101044.22
2022-10-31T11:24:12.312Z,101040.00
2022-10-31T11:26:43.466Z,101049.47
2022-10-31T11:29:29.450Z,101036.78
2022-10-31T11:32:02.172Z,101043.53
2022-10-31T11:34:37.718Z,101041.00
2022-10-31T11:37:30.791Z,101042.72
2022-10-31T11:40:06.059Z,101022.41
2022-10-31T11:42:43.324Z,101040.16
2022-10-31T11:45:21.501Z,101036.72
2022-10-31T11:47:58.184Z,101040.22
2022-10-31T11:50:38.322Z,101032.66
2022-10-31T11:53:19.574Z,101041.13
2022-10-31T11:55:49.700Z,101002.41
2022-10-31T11:58:26.699Z,101060.94
2022-10-31T12:00:58.525Z,101055.03
2022-10-31T12:03:42.401Z,101058.47
2022-10-31T12:06:26.555Z,101060.22
2022-10-31T12:08:58.896Z,101061.13
2022-10-31T12:11:55.997Z,101062.06
2022-10-31T12:14:46.822Z,101056.16
2022-10-31T12:17:26.584Z,101060.47
2022-10-31T12:20:12.757Z,101063.94
2022-10-31T12:23:00.482Z,101059.78
2022-10-31T12:25:39.477Z,101069.16
2022-10-31T12:28:27.174Z,101069.22
2022-10-31T12:31:13.429Z,101065.78
2022-10-31T12:34:00.845Z,101070.09
2022-10-31T12:36:40.812Z,101064.97
2022-10-31T12:39:18.647Z,101074.38
2022-10-31T12:42:07.855Z,101064.97
2022-10-31T12:45:05.371Z,101059.19
2022-10-31T12:47:56.209Z,101073.56
2022-10-31T12:50:40.129Z,101065.91
2022-10-31T12:53:31.757Z,101056.75
2022-10-31T12:56:18.539Z,101062.63
2022-10-31T12:59:09.952Z,101066.06
2022-10-31T13:01:46.751Z,101067.75
2022-10-31T13:04:35.782Z,101066.91
2022-10-31T13:07:13.715Z,101070.38
2022-10-31T13:10:14.745Z,101063.53
2022-10-31T13:12:43.776Z,101071.19
2022-10-31T13:15:29.580Z,101056.69
2022-10-31T13:18:08.802Z,101067.78
2022-10-31T13:20:54.612Z,101066.03
2022-10-31T13:23:50.504Z,101070.31
2022-10-31T13:26:38.311Z,101066.16
2022-10-31T13:29:32.720Z,101065.34
2022-10-31T13:32:08.982Z,101053.53
2022-10-31T13:34:42.423Z,101046.78
2022-10-31T13:37:13.041Z,101060.47
2022-10-31T13:39:54.207Z,101061.41
2022-10-31T13:42:44.875Z,101054.59
2022-10-31T13:45:25.517Z,101054.72
2022-10-31T13:48:03.007Z,101055.72
2022-10-31T13:50:36.116Z,101056.56
2022-10-31T13:53:22.865Z,101057.47
2022-10-31T13:56:09.448Z,101051.53
2022-10-31T13:58:37.858Z,101049.09
2022-10-31T14:01:21.956Z,101058.56
2022-10-31T14:04:13.549Z,101047.56
2022-10-31T14:06:59.166Z,101050.91
2022-10-31T14:09:32.084Z,101054.41
2022-10-31T14:12:27.200Z,101060.47
2022-10-31T14:15:01.780Z,101053.69
2022-10-31T14:17:43.303Z,101049.41
2022-10-31T14:20:14.076Z,101053.78
2022-10-31T14:22:43.070Z,101046.09
2022-10-31T14:25:36.634Z,101051.19
2022-10-31T14:28:24.345Z,101040.94
2022-10-31T14:30:58.607Z,101060.63
2022-10-31T14:33:30.480Z,101058.06
2022-10-31T14:36:19.857Z,101042.72
2022-10-31T14:38:58.803Z,101047.13
2022-10-31T14:41:53.114Z,101048.88
2022-10-31T14:44:54.716Z,101043.84
2022-10-31T14:47:41.241Z,101044.81
2022-10-31T14:50:20.705Z,101038.94
2022-10-31T14:52:52.951Z,101044.06
2022-10-31T14:55:23.189Z,101049.13
2022-10-31T14:57:56.262Z,101048.28
2022-10-31T15:00:29.797Z,101037.19
2022-10-31T15:03:17.641Z,101045.69
2022-10-31T15:06:02.192Z,101056.81
2022-10-31T15:08:47.127Z,101048.31
2022-10-31T15:11:20.529Z,101052.66
2022-10-31T15:13:49.687Z,101049.25
2022-10-31T15:16:22.858Z,101055.31
2022-10-31T15:19:01.604Z,101059.69
2022-10-31T15:21:30.843Z,101054.69
2022-10-31T15:24:02.115Z,101057.38
2022-10-31T15:26:44.154Z,101038.84
2022-10-31T15:29:17.728Z,101052.47
2022-10-31T15:31:59.924Z,101067.94
2022-10-31T15:34:41.799Z,101060.34
2022-10-31T15:37:18.402Z,101058.63
2022-10-31T15:39:48.023Z,101060.34
2022-10-31T15:42:27.769Z,101056.13
2022-10-31T15:45:17.959Z,101056.97
2022-10-31T15:48:07.099Z,101053.50
2022-10-31T15:50:41.266Z,101059.41
2022-10-31T15:53:22.816Z,101056.84
2022-10-31T15:55:57.776Z,101065.34
2022-10-31T15:58:27.454Z,101061.03
2022-10-31T16:01:05.353Z,101058.47
2022-10-31T16:03:35.573Z,101065.28
2022-10-31T16:06:06.940Z,101073.81
2022-10-31T16:08:40.712Z,101028.78
2022-10-31T16:11:08.698Z,101073.81
2022-10-31T16:13:55.770Z,101055.13
2022-10-31T16:16:39.690Z,101046.69
2022-10-31T16:19:34.785Z,101070.66
2022-10-31T16:22:16.327Z,101055.50
2022-10-31T16:24:55.408Z,101065.81
2022-10-31T16:27:33.092Z,101068.53
2022-10-31T16:30:04.681Z,101067.75
2022-10-31T16:32:53.467Z,101068.66
2022-10-31T16:35:28.911Z,101078.88
2022-10-31T16:37:56.875Z,101071.25
2022-10-31T16:40:25.827Z,101089.22
2022-10-31T16:42:57.710Z,101091.84
2022-10-31T16:45:28.805Z,101084.25
2022-10-31T16:48:09.238Z,101082.63
2022-10-31T16:50:39.171Z,101087.81
2022-10-31T16:53:13.987Z,101086.19
2022-10-31T16:55:56.739Z,101087.13
2022-10-31T16:58:34.517Z,101079.47
2022-10-31T17:01:07.643Z,101086.34
2022-10-31T17:03:35.795Z,101087.22
2022-10-31T17:06:04.124Z,101088.94
2022-10-31T17:08:33.245Z,101097.59
2022-10-31T17:11:01.562Z,101099.34
2022-10-31T17:13:34.867Z,101110.47
2022-10-31T17:16:04.226Z,101114.72
2022-10-31T17:18:34.838Z,101101.94
2022-10-31T17:21:06.825Z,101106.25
2022-10-31T17:23:35.091Z,101119.03
2022-10-31T17:26:03.261Z,101103.75
2022-10-31T17:28:31.177Z,101111.44
2022-10-31T17:31:00.768Z,101119.13
2022-10-31T17:33:28.916Z,101118.31
2022-10-31T17:35:57.017Z,101108.09
2022-10-31T17:38:29.764Z,101109.81
2022-10-31T17:40:57.650Z,101117.47
2022-10-31T17:43:27.646Z,101114.94
2022-10-31T17:45:58.634Z,101109.84
2022-10-31T17:48:26.874Z,101110.72
2022-10-31T17:50:54.797Z,101109.94
2022-10-31T17:53:25.102Z,101123.59
2022-10-31T17:55:53.136Z,101102.34
2022-10-31T17:58:21.502Z,101104.06
2022-10-31T18:00:51.351Z,101110.84
2022-10-31T18:03:19.607Z,101119.38
2022-10-31T18:05:59.121Z,101115.13
2022-10-31T18:08:32.362Z,101116.81
2022-10-31T18:11:03.315Z,101113.44
2022-10-31T18:13:31.432Z,101096.47
2022-10-31T18:15:59.361Z,101114.34
2022-10-31T18:18:27.378Z,101109.22
2022-10-31T18:21:00.688Z,101109.25
2022-10-31T18:23:28.880Z,101105.88
2022-10-31T18:25:56.886Z,101110.19
2022-10-31T18:28:25.775Z,101112.75
2022-10-31T18:30:53.770Z,101109.34
2022-10-31T18:33:21.879Z,101116.16
2022-10-31T18:35:51.709Z,101121.31
2022-10-31T18:38:19.673Z,101123.84
2022-10-31T18:40:47.860Z,101117.03
2022-10-31T18:43:16.031Z,101117.97
2022-10-31T18:45:49.424Z,101138.41
2022-10-31T18:48:19.581Z,101125.66
2022-10-31T18:50:47.630Z,101117.22
2022-10-31T18:53:15.577Z,101132.50
2022-10-31T18:55:47.536Z,101129.97
2022-10-31T18:58:18.436Z,101124.88
2022-10-31T19:00:47.188Z,101130.00
2022-10-31T19:03:18.047Z,101130.88
2022-10-31T19:05:48.721Z,101143.66
2022-10-31T19:08:17.038Z,101132.59
2022-10-31T19:10:46.035Z,101131.72
2022-10-31T19:13:14.227Z,101145.34
2022-10-31T19:15:42.272Z,101138.53
2022-10-31T19:18:10.651Z,101134.28
2022-10-31T19:20:40.056Z,101154.69
2022-10-31T19:23:07.680Z,101143.63
2022-10-31T19:25:36.607Z,101147.03
2022-10-31T19:28:04.910Z,101156.38
2022-10-31T19:30:33.127Z,101155.53
2022-10-31T19:33:01.316Z,101149.56
2022-10-31T19:35:29.285Z,101153.81
2022-10-31T19:37:57.173Z,101155.50
2022-10-31T19:40:26.523Z,101142.75
2022-10-31T19:42:54.489Z,101154.63
2022-10-31T19:45:22.521Z,101152.91
2022-10-31T19:47:50.692Z,101148.66
2022-10-31T19:50:18.676Z,101145.25
2022-10-31T19:52:47.050Z,101157.09
2022-10-31T19:55:15.230Z,101095.13
2022-10-31T20:00:31.463Z,101164.72
2022-10-31T20:03:00.720Z,101169.78
2022-10-31T20:05:29.106Z,101162.13
2022-10-31T20:07:57.981Z,101162.09
2022-10-31T20:10:26.175Z,101172.28
2022-10-31T20:12:54.086Z,101172.25
2022-10-31T20:15:23.708Z,101160.34
2022-10-31T20:17:51.784Z,101167.13
2022-10-31T20:20:19.912Z,101164.53
2022-10-31T20:22:50.660Z,101161.09
2022-10-31T20:25:19.530Z,101156.03
2022-10-31T20:27:47.633Z,101173.84
2022-10-31T20:30:17.566Z,101166.16
2022-10-31T20:32:49.931Z,101178.91
2022-10-31T20:35:20.612Z,101177.16
2022-10-31T20:37:48.582Z,101178.00
2022-10-31T20:40:16.637Z,101122.78
2022-10-31T20:42:49.802Z,101180.53
2022-10-31T20:45:17.767Z,101188.19
2022-10-31T20:47:45.681Z,101178.81
2022-10-31T20:50:13.713Z,101177.94
2022-10-31T20:52:41.869Z,101186.38
2022-10-31T20:55:09.971Z,101190.59
2022-10-31T20:57:37.903Z,101172.72
2022-10-31T21:00:06.515Z,101191.41
2022-10-31T21:02:35.593Z,101197.34
2022-10-31T21:05:04.198Z,101180.22
2022-10-31T21:07:32.431Z,101189.59
2022-10-31T21:10:00.365Z,101206.63
2022-10-31T21:12:28.427Z,101190.44
2022-10-31T21:14:56.429Z,101201.47
2022-10-31T21:17:24.383Z,101195.44
2022-10-31T21:19:52.343Z,101207.41
2022-10-31T21:22:21.803Z,101215.91
2022-10-31T21:24:49.437Z,101206.47
2022-10-31T21:27:17.413Z,101214.13
2022-10-31T21:29:47.180Z,101204.75
2022-10-31T21:32:15.091Z,101203.06
2022-10-31T21:34:43.035Z,101209.81
2022-10-31T21:37:11.116Z,101206.41
2022-10-31T21:39:39.270Z,101202.09
2022-10-31T21:42:07.250Z,101205.47
2022-10-31T21:44:36.737Z,101212.28
2022-10-31T21:47:04.360Z,101215.63
2022-10-31T21:49:32.343Z,101214.72
2022-10-31T21:52:01.878Z,101170.56
2022-10-31T21:54:30.929Z,101216.38
2022-10-31T21:57:00.468Z,101212.97
2022-10-31T21:59:29.125Z,101203.66
2022-10-31T22:01:58.866Z,101218.94
2022-10-31T22:04:28.705Z,101219.75
2022-10-31T22:06:56.863Z,101216.34
2022-10-31T22:09:26.699Z,101226.56
2022-10-31T22:11:54.691Z,101207.91
2022-10-31T22:14:23.751Z,101224.09
2022-10-31T22:16:51.676Z,101223.22
2022-10-31T22:19:19.689Z,101202.78
2022-10-31T22:21:49.836Z,101235.09
2022-10-31T22:24:19.126Z,101229.97
2022-10-31T22:26:47.320Z,101234.25
2022-10-31T22:29:19.651Z,101231.66
2022-10-31T22:31:53.383Z,101241.91
2022-10-31T22:34:25.450Z,101250.44
2022-10-31T22:36:55.975Z,101254.72
2022-10-31T22:39:24.067Z,101262.38
2022-10-31T22:41:52.048Z,101256.38
2022-10-31T22:44:20.232Z,101258.09
2022-10-31T22:46:48.295Z,101255.53
2022-10-31T22:49:16.626Z,101271.72
2022-10-31T22:51:45.812Z,101269.97
2022-10-31T22:54:19.035Z,101270.00
2022-10-31T22:56:47.841Z,101283.72
2022-10-31T22:59:18.626Z,101271.78
2022-10-31T23:01:46.894Z,101275.13
2022-10-31T23:04:17.190Z,101278.53
2022-10-31T23:06:45.829Z,101267.44
2022-10-31T23:09:16.508Z,101281.91
2022-10-31T23:11:45.412Z,101293.00
2022-10-31T23:14:20.284Z,101281.00
2022-10-31T23:16:48.171Z,101286.97
2022-10-31T23:19:23.460Z,101286.94
2022-10-31T23:21:58.359Z,101297.19
2022-10-31T23:24:39.402Z,101284.34
2022-10-31T23:27:16.075Z,101300.56
2022-10-31T23:29:49.704Z,101291.16
2022-10-31T23:32:38.783Z,101294.56
2022-10-31T23:35:11.027Z,101297.06
2022-10-31T23:37:40.778Z,101305.56
2022-10-31T23:40:09.287Z,101303.84
2022-10-31T23:42:37.248Z,101290.28
2022-10-31T23:45:08.102Z,101303.84
2022-10-31T23:47:40.728Z,101303.84
2022-10-31T23:50:14.910Z,101314.06
2022-10-31T23:52:42.843Z,101308.13
2022-10-31T23:55:11.083Z,101310.72
2022-10-31T23:57:41.403Z,101308.13
